Time;durP1;ratioP1;P1;durP2;ratioP2;P2;SDS_P1;SDS_P2;PMS_P1;PMS_P2;Temp;Humidity;BMP_temperature;BMP_pressure;BME280_temperature;BME280_humidity;BME280_pressure;Samples;Min_cycle;Max_cycle;Signal;HPM_P1;HPM_P2
2023/09/23 00:01:20;;;;;;;664.00;215.63;;;;;;;;;;5049026;28;20115;-58
2023/09/23 00:03:46;;;;;;;654.35;197.00;;;;;;;;;;5067221;28;20062;-57
2023/09/23 00:06:11;;;;;;;659.50;209.15;;;;;;;;;;5065880;28;20017;-60
2023/09/23 00:08:36;;;;;;;655.38;199.30;;;;;;;;;;5066348;28;20383;-58
2023/09/23 00:11:02;;;;;;;663.53;206.15;;;;;;;;;;5063694;28;20024;-57
2023/09/23 00:13:28;;;;;;;655.20;203.32;;;;;;;;;;5061402;28;20513;-63
2023/09/23 00:15:54;;;;;;;654.25;193.20;;;;;;;;;;5058469;28;20060;-62
2023/09/23 00:18:19;;;;;;;657.25;196.20;;;;;;;;;;5063825;28;20025;-59
2023/09/23 00:20:46;;;;;;;664.65;197.25;;;;;;;;;;5066715;28;20476;-58
2023/09/23 00:23:11;;;;;;;658.03;195.60;;;;;;;;;;5065298;28;20025;-62
2023/09/23 00:25:36;;;;;;;661.35;209.90;;;;;;;;;;5067191;28;20017;-59
2023/09/23 00:28:02;;;;;;;657.85;213.75;;;;;;;;;;5065234;28;20535;-58
2023/09/23 00:30:28;;;;;;;658.75;209.07;;;;;;;;;;5066282;28;20016;-57
2023/09/23 00:32:53;;;;;;;654.45;203.30;;;;;;;;;;5063631;28;20111;-62
2023/09/23 00:35:18;;;;;;;659.45;205.43;;;;;;;;;;5046029;28;20455;-62
2023/09/23 00:37:48;;;;;;;658.17;198.90;;;;;;;;;;5058477;28;20029;-62
2023/09/23 00:40:17;;;;;;;661.47;202.70;;;;;;;;;;5066721;28;20024;-61
2023/09/23 00:42:43;;;;;;;658.50;206.05;;;;;;;;;;5053424;28;20025;-61
2023/09/23 00:45:14;;;;;;;657.05;203.20;;;;;;;;;;5050033;28;20083;-56
2023/09/23 00:47:40;;;;;;;655.85;197.52;;;;;;;;;;5064074;28;20029;-60
2023/09/23 00:50:17;;;;;;;661.95;200.40;;;;;;;;;;5066509;28;20367;-60
2023/09/23 00:52:42;;;;;;;657.58;192.02;;;;;;;;;;5064536;28;20029;-63
2023/09/23 00:55:07;;;;;;;661.55;204.40;;;;;;;;;;5058728;28;20036;-58
2023/09/23 00:57:33;;;;;;;654.70;200.80;;;;;;;;;;5056608;28;20516;-58
2023/09/23 00:59:59;;;;;;;660.78;205.35;;;;;;;;;;5046444;28;20028;-60
2023/09/23 01:02:24;;;;;;;659.90;204.10;;;;;;;;;;5059199;28;20476;-62
2023/09/23 01:04:50;;;;;;;657.72;208.70;;;;;;;;;;5065896;28;20027;-54
2023/09/23 01:07:15;;;;;;;651.15;199.38;;;;;;;;;;5061429;28;20360;-56
2023/09/23 01:09:41;;;;;;;659.72;207.27;;;;;;;;;;5062206;28;20024;-59
2023/09/23 01:12:08;;;;;;;660.42;207.30;;;;;;;;;;5066052;28;20025;-61
2023/09/23 01:14:34;;;;;;;657.70;204.20;;;;;;;;;;5065786;28;20016;-61
2023/09/23 01:17:01;;;;;;;653.40;206.10;;;;;;;;;;5065878;28;20024;-62
2023/09/23 01:19:27;;;;;;;660.72;207.95;;;;;;;;;;5066131;28;20020;-55
2023/09/23 01:21:56;;;;;;;656.20;206.60;;;;;;;;;;5064642;28;20029;-61
2023/09/23 01:24:21;;;;;;;660.65;205.38;;;;;;;;;;5066086;28;20073;-62
2023/09/23 01:26:51;;;;;;;660.30;208.05;;;;;;;;;;5064115;28;20506;-55
2023/09/23 01:29:23;;;;;;;653.53;194.65;;;;;;;;;;5065657;28;20355;-57
2023/09/23 01:32:10;;;;;;;658.28;199.27;;;;;;;;;;5063344;28;20473;-62
2023/09/23 01:34:35;;;;;;;664.72;210.75;;;;;;;;;;5044186;28;20442;-57
2023/09/23 01:37:00;;;;;;;685.85;248.10;;;;;;;;;;5050811;28;20119;-59
2023/09/23 01:39:26;;;;;;;689.80;256.10;;;;;;;;;;5065568;28;20363;-61
2023/09/23 01:41:53;;;;;;;681.67;243.93;;;;;;;;;;5063769;28;20031;-63
2023/09/23 01:44:19;;;;;;;688.35;244.98;;;;;;;;;;5054912;28;20037;-61
2023/09/23 01:46:44;;;;;;;695.00;252.65;;;;;;;;;;5045694;28;20028;-62
2023/09/23 01:49:09;;;;;;;687.88;246.95;;;;;;;;;;5062206;28;20059;-58
2023/09/23 01:51:35;;;;;;;683.67;241.45;;;;;;;;;;5062789;28;20036;-58
2023/09/23 01:54:00;;;;;;;680.88;239.45;;;;;;;;;;5065130;28;20027;-61
2023/09/23 01:56:26;;;;;;;687.75;246.65;;;;;;;;;;5065213;28;20024;-56
2023/09/23 01:58:51;;;;;;;687.88;235.88;;;;;;;;;;5063565;28;20024;-57
2023/09/23 02:01:16;;;;;;;682.08;239.10;;;;;;;;;;5045991;28;20082;-58
2023/09/23 02:03:42;;;;;;;681.30;234.25;;;;;;;;;;5065278;28;20020;-59
2023/09/23 02:06:07;;;;;;;682.83;239.07;;;;;;;;;;5063884;28;20109;-57
2023/09/23 02:08:32;;;;;;;682.15;237.20;;;;;;;;;;5064106;28;20086;-63
2023/09/23 02:10:57;;;;;;;676.53;230.93;;;;;;;;;;5061037;28;20059;-59
2023/09/23 02:13:23;;;;;;;681.47;238.48;;;;;;;;;;5062317;28;20032;-58
2023/09/23 02:15:48;;;;;;;688.95;251.38;;;;;;;;;;5054718;28;20113;-62
2023/09/23 02:18:14;;;;;;;688.78;248.55;;;;;;;;;;5060683;28;20390;-57
2023/09/23 02:20:40;;;;;;;702.38;260.08;;;;;;;;;;5064840;28;20432;-61
2023/09/23 02:23:05;;;;;;;699.63;254.15;;;;;;;;;;5059456;28;20048;-58
2023/09/23 02:25:31;;;;;;;684.22;246.43;;;;;;;;;;5044996;28;20021;-60
2023/09/23 02:27:57;;;;;;;687.28;256.10;;;;;;;;;;5053760;28;20077;-62
2023/09/23 02:30:22;;;;;;;691.13;238.18;;;;;;;;;;5064481;28;20020;-61
2023/09/23 02:32:48;;;;;;;691.10;255.75;;;;;;;;;;5064435;28;20387;-56
2023/09/23 02:35:15;;;;;;;685.75;240.40;;;;;;;;;;5064351;28;20060;-60
2023/09/23 02:37:44;;;;;;;695.55;237.18;;;;;;;;;;5062907;28;20047;-62
2023/09/23 02:40:13;;;;;;;;;;;;;;;;;;5062713;28;20328;-63
2023/09/23 02:42:40;;;;;;;689.70;250.47;;;;;;;;;;5062588;28;19908;-61
2023/09/23 02:45:06;;;;;;;687.55;252.57;;;;;;;;;;5045814;28;20067;-59
2023/09/23 02:47:32;;;;;;;691.35;260.35;;;;;;;;;;5054929;28;20389;-58
2023/09/23 02:49:57;;;;;;;690.25;261.40;;;;;;;;;;5064486;28;20028;-63
2023/09/23 02:52:22;;;;;;;693.53;258.02;;;;;;;;;;5062639;28;20501;-62
2023/09/23 02:54:48;;;;;;;687.05;258.42;;;;;;;;;;5064273;28;20028;-58
2023/09/23 02:57:13;;;;;;;687.40;258.38;;;;;;;;;;5053667;28;20565;-58
2023/09/23 02:59:42;;;;;;;696.25;267.33;;;;;;;;;;5064115;28;20042;-60
2023/09/23 03:02:08;;;;;;;701.22;274.85;;;;;;;;;;5064013;28;20028;-58
2023/09/23 03:04:33;;;;;;;689.25;257.02;;;;;;;;;;5064113;28;20078;-61
2023/09/23 03:07:01;;;;;;;684.53;248.48;;;;;;;;;;5064230;28;20033;-57
2023/09/23 03:09:32;;;;;;;693.00;254.57;;;;;;;;;;5064313;28;20035;-58
2023/09/23 03:11:57;;;;;;;690.08;256.10;;;;;;;;;;5062764;28;20052;-62
2023/09/23 03:14:27;;;;;;;690.13;263.02;;;;;;;;;;5064136;28;20110;-59
2023/09/23 03:16:54;;;;;;;694.67;262.67;;;;;;;;;;5058283;28;20051;-60
2023/09/23 03:19:24;;;;;;;695.72;262.65;;;;;;;;;;5066634;28;20032;-62
2023/09/23 03:21:50;;;;;;;690.35;259.23;;;;;;;;;;5065524;28;20043;-59
2023/09/23 03:24:16;;;;;;;691.03;263.38;;;;;;;;;;5068337;28;20105;-59
2023/09/23 03:26:42;;;;;;;695.85;258.42;;;;;;;;;;5065374;28;20059;-61
2023/09/23 03:29:08;;;;;;;685.10;257.17;;;;;;;;;;5068204;28;20535;-55
2023/09/23 03:31:34;;;;;;;691.13;250.45;;;;;;;;;;5065087;28;20024;-62
2023/09/23 03:34:03;;;;;;;683.05;237.48;;;;;;;;;;5068255;28;20021;-60
2023/09/23 03:36:31;;;;;;;683.53;238.38;;;;;;;;;;5066079;28;20020;-59
2023/09/23 03:38:57;;;;;;;684.33;235.23;;;;;;;;;;5068088;28;20097;-62
2023/09/23 03:41:22;;;;;;;677.30;224.50;;;;;;;;;;5065924;28;20513;-61
2023/09/23 03:43:47;;;;;;;674.67;212.23;;;;;;;;;;5067665;28;20381;-59
2023/09/23 03:46:14;;;;;;;674.53;218.90;;;;;;;;;;5065126;28;20028;-56
2023/09/23 03:48:39;;;;;;;673.70;218.77;;;;;;;;;;5066642;28;20337;-58
2023/09/23 03:51:07;;;;;;;676.83;213.25;;;;;;;;;;5067564;28;20247;-58
2023/09/23 03:53:32;;;;;;;683.08;221.63;;;;;;;;;;5065590;28;20032;-62
2023/09/23 03:56:00;;;;;;;678.78;216.50;;;;;;;;;;5067650;28;20040;-63
2023/09/23 03:58:26;;;;;;;676.05;213.02;;;;;;;;;;5066583;28;20037;-62
2023/09/23 04:00:51;;;;;;;666.35;199.48;;;;;;;;;;5062453;28;20020;-63
2023/09/23 04:03:17;;;;;;;667.78;192.88;;;;;;;;;;5066010;28;20067;-59
2023/09/23 04:05:42;;;;;;;678.97;208.70;;;;;;;;;;5067899;28;20520;-60
2023/09/23 04:08:07;;;;;;;671.60;199.57;;;;;;;;;;5063458;28;20040;-56
2023/09/23 04:10:35;;;;;;;673.20;205.25;;;;;;;;;;5067258;28;20029;-60
2023/09/23 04:13:01;;;;;;;676.53;211.23;;;;;;;;;;5066323;28;20485;-60
2023/09/23 04:15:26;;;;;;;670.95;201.30;;;;;;;;;;5063176;28;20107;-61
2023/09/23 04:17:52;;;;;;;669.20;203.25;;;;;;;;;;5060849;28;20582;-63
2023/09/23 04:20:17;;;;;;;677.55;205.77;;;;;;;;;;5068437;28;20090;-64
2023/09/23 04:22:46;;;;;;;668.08;200.98;;;;;;;;;;5064852;28;20035;-58
2023/09/23 04:25:13;;;;;;;674.83;212.33;;;;;;;;;;5067697;28;20020;-61
2023/09/23 04:27:39;;;;;;;672.05;205.63;;;;;;;;;;5064189;28;20028;-57
2023/09/23 04:30:11;;;;;;;667.75;197.45;;;;;;;;;;5067290;28;20020;-62
2023/09/23 04:32:40;;;;;;;675.10;206.48;;;;;;;;;;5064002;28;20060;-58
2023/09/23 04:35:07;;;;;;;671.00;200.27;;;;;;;;;;5065584;28;20020;-62
2023/09/23 04:37:36;;;;;;;668.88;205.20;;;;;;;;;;5065033;28;20040;-63
2023/09/23 04:40:05;;;;;;;672.45;213.77;;;;;;;;;;5067033;28;20017;-57
2023/09/23 04:42:30;;;;;;;668.63;200.00;;;;;;;;;;5042076;28;20037;-56
2023/09/23 04:44:56;;;;;;;662.83;196.43;;;;;;;;;;5043989;28;20061;-60
2023/09/23 04:47:22;;;;;;;668.08;205.88;;;;;;;;;;5042542;28;20442;-61
2023/09/23 04:49:48;;;;;;;664.33;195.80;;;;;;;;;;5044052;28;20406;-61
2023/09/23 04:52:15;;;;;;;670.20;208.88;;;;;;;;;;5042746;28;20529;-60
2023/09/23 04:54:41;;;;;;;667.83;205.80;;;;;;;;;;5044214;28;20135;-58
2023/09/23 04:57:06;;;;;;;668.45;200.27;;;;;;;;;;5042843;28;20052;-62
2023/09/23 04:59:34;;;;;;;666.70;194.90;;;;;;;;;;5044153;28;20021;-57
2023/09/23 05:02:00;;;;;;;662.80;190.35;;;;;;;;;;5039494;28;20025;-60
2023/09/23 05:04:25;;;;;;;671.95;196.63;;;;;;;;;;5031450;28;20239;-61
2023/09/23 05:06:50;;;;;;;667.75;192.02;;;;;;;;;;5031737;28;20116;-56
2023/09/23 05:09:16;;;;;;;669.70;200.65;;;;;;;;;;5043833;28;20037;-60
2023/09/23 05:11:41;;;;;;;667.38;191.95;;;;;;;;;;5042318;28;20021;-58
2023/09/23 05:14:07;;;;;;;663.33;193.85;;;;;;;;;;5060448;28;20421;-58
2023/09/23 05:16:32;;;;;;;669.42;195.00;;;;;;;;;;5062851;28;20477;-62
2023/09/23 05:18:57;;;;;;;665.13;194.02;;;;;;;;;;5064922;28;20134;-62
2023/09/23 05:21:24;;;;;;;665.92;196.70;;;;;;;;;;5062749;28;20528;-61
2023/09/23 05:23:50;;;;;;;670.88;207.93;;;;;;;;;;5066162;28;20385;-63
2023/09/23 05:26:16;;;;;;;670.85;204.57;;;;;;;;;;5064693;28;20024;-55
2023/09/23 05:28:42;;;;;;;674.60;211.18;;;;;;;;;;5065418;28;20385;-59
2023/09/23 05:31:07;;;;;;;674.03;204.02;;;;;;;;;;5062468;28;20149;-59
2023/09/23 05:33:33;;;;;;;673.28;203.85;;;;;;;;;;5053223;28;20051;-57
2023/09/23 05:35:58;;;;;;;668.38;200.95;;;;;;;;;;5056719;28;20056;-60
2023/09/23 05:38:23;;;;;;;670.58;202.52;;;;;;;;;;5044914;28;20386;-61
2023/09/23 05:40:51;;;;;;;663.35;193.10;;;;;;;;;;5057613;28;20043;-60
2023/09/23 05:43:17;;;;;;;670.83;204.45;;;;;;;;;;5065506;28;20094;-59
2023/09/23 05:45:42;;;;;;;670.85;204.48;;;;;;;;;;5065744;28;20052;-61
2023/09/23 05:48:07;;;;;;;673.25;215.93;;;;;;;;;;5065918;28;20493;-63
2023/09/23 05:50:33;;;;;;;670.47;197.50;;;;;;;;;;5049220;28;20383;-61
2023/09/23 05:52:58;;;;;;;671.47;205.30;;;;;;;;;;5060902;28;20028;-61
2023/09/23 05:55:23;;;;;;;669.65;197.82;;;;;;;;;;5065565;28;20020;-61
2023/09/23 05:57:51;;;;;;;666.95;201.15;;;;;;;;;;5063891;28;20029;-58
2023/09/23 06:00:17;;;;;;;674.78;211.27;;;;;;;;;;5063028;28;20120;-58
2023/09/23 06:02:47;;;;;;;669.47;207.77;;;;;;;;;;5060218;28;20087;-58
2023/09/23 06:05:13;;;;;;;674.35;210.85;;;;;;;;;;5065164;28;20334;-56
2023/09/23 06:07:40;;;;;;;684.35;226.95;;;;;;;;;;5062305;28;20017;-59
2023/09/23 06:10:06;;;;;;;672.72;214.45;;;;;;;;;;5065565;28;20111;-57
2023/09/23 06:12:32;;;;;;;681.80;230.93;;;;;;;;;;5061675;28;20448;-60
2023/09/23 06:14:58;;;;;;;688.17;240.18;;;;;;;;;;5063908;28;20024;-62
2023/09/23 06:17:24;;;;;;;688.53;251.05;;;;;;;;;;5056930;28;20033;-62
2023/09/23 06:19:49;;;;;;;686.25;252.25;;;;;;;;;;5064254;28;20059;-60
2023/09/23 06:22:14;;;;;;;689.78;264.23;;;;;;;;;;5062885;28;20105;-60
2023/09/23 06:24:39;;;;;;;690.38;261.50;;;;;;;;;;5049114;28;20025;-60
2023/09/23 06:27:05;;;;;;;683.83;234.25;;;;;;;;;;5051915;28;20105;-57
2023/09/23 06:29:30;;;;;;;688.58;249.93;;;;;;;;;;5063306;28;20028;-60
2023/09/23 06:31:55;;;;;;;684.58;252.57;;;;;;;;;;5061868;28;20008;-63
2023/09/23 06:34:21;;;;;;;682.63;238.85;;;;;;;;;;5063177;28;20012;-60
2023/09/23 06:36:46;;;;;;;683.92;245.90;;;;;;;;;;5061541;28;20031;-58
2023/09/23 06:39:11;;;;;;;689.28;257.88;;;;;;;;;;5063865;28;20028;-61
2023/09/23 06:41:37;;;;;;;687.33;236.05;;;;;;;;;;5062137;28;20017;-59
2023/09/23 06:44:03;;;;;;;684.63;247.30;;;;;;;;;;5064677;28;20107;-63
2023/09/23 06:46:28;;;;;;;687.30;255.98;;;;;;;;;;5053533;28;20074;-59
2023/09/23 06:48:54;;;;;;;679.33;239.00;;;;;;;;;;5064890;28;20036;-60
2023/09/23 06:51:19;;;;;;;683.63;238.15;;;;;;;;;;5057441;28;20031;-63
2023/09/23 06:53:44;;;;;;;679.72;241.82;;;;;;;;;;5060022;28;20474;-62
2023/09/23 06:56:09;;;;;;;678.15;237.68;;;;;;;;;;5061130;28;20029;-56
2023/09/23 06:58:35;;;;;;;685.28;239.50;;;;;;;;;;5055250;28;20325;-57
2023/09/23 07:01:00;;;;;;;686.40;241.27;;;;;;;;;;5063391;28;20027;-61
2023/09/23 07:03:26;;;;;;;687.40;246.90;;;;;;;;;;5059281;28;20753;-61
2023/09/23 07:05:51;;;;;;;687.95;243.35;;;;;;;;;;5045099;28;20468;-62
2023/09/23 07:08:17;;;;;;;680.75;235.13;;;;;;;;;;5044895;28;20032;-56
2023/09/23 07:10:42;;;;;;;686.58;250.57;;;;;;;;;;5044698;28;20409;-60
2023/09/23 07:13:08;;;;;;;677.58;232.40;;;;;;;;;;5059137;28;20084;-61
2023/09/23 07:15:37;;;;;;;674.58;229.23;;;;;;;;;;5064586;28;20086;-61
2023/09/23 07:18:03;;;;;;;676.10;233.98;;;;;;;;;;5050096;28;20482;-61
2023/09/23 07:20:28;;;;;;;681.60;245.88;;;;;;;;;;5044255;28;20035;-62
2023/09/23 07:22:53;;;;;;;685.25;247.30;;;;;;;;;;5054370;28;20021;-63
2023/09/23 07:25:18;;;;;;;682.50;244.68;;;;;;;;;;5064540;28;20251;-55
2023/09/23 07:27:44;;;;;;;683.25;242.55;;;;;;;;;;5031829;28;20422;-59
2023/09/23 07:30:09;;;;;;;678.15;227.95;;;;;;;;;;5058921;28;20066;-61
2023/09/23 07:32:34;;;;;;;676.90;228.48;;;;;;;;;;5063288;28;20024;-59
2023/09/23 07:35:00;;;;;;;675.53;219.75;;;;;;;;;;5062461;28;20728;-57
2023/09/23 07:37:25;;;;;;;684.40;225.00;;;;;;;;;;5062835;28;20039;-63
2023/09/23 07:39:50;;;;;;;683.30;227.23;;;;;;;;;;5064721;28;20021;-64
2023/09/23 07:42:15;;;;;;;684.90;226.65;;;;;;;;;;5062305;28;20472;-61
2023/09/23 07:44:41;;;;;;;682.33;224.32;;;;;;;;;;5051108;28;20052;-61
2023/09/23 07:47:07;;;;;;;676.00;209.40;;;;;;;;;;5056639;28;20036;-63
2023/09/23 07:49:34;;;;;;;683.22;214.95;;;;;;;;;;5044747;28;20365;-64
2023/09/23 07:51:59;;;;;;;678.22;218.93;;;;;;;;;;5044824;28;20386;-61
2023/09/23 07:54:24;;;;;;;682.63;222.45;;;;;;;;;;5044465;28;20025;-62
2023/09/23 07:56:49;;;;;;;670.85;215.32;;;;;;;;;;5049211;28;20021;-59
2023/09/23 07:59:15;;;;;;;670.70;210.07;;;;;;;;;;5059575;28;20044;-57
2023/09/23 08:01:40;;;;;;;681.42;222.57;;;;;;;;;;5061747;28;20025;-61
2023/09/23 08:04:05;;;;;;;679.05;206.45;;;;;;;;;;5064635;28;20066;-63
2023/09/23 08:06:31;;;;;;;683.53;229.35;;;;;;;;;;5067017;28;20032;-60
2023/09/23 08:08:56;;;;;;;679.28;228.25;;;;;;;;;;5068199;28;20489;-61
2023/09/23 08:11:21;;;;;;;678.30;224.65;;;;;;;;;;5066627;28;20181;-64
2023/09/23 08:13:47;;;;;;;675.08;218.43;;;;;;;;;;5067349;28;20028;-56
2023/09/23 08:16:12;;;;;;;679.35;222.18;;;;;;;;;;5067031;28;20032;-57
2023/09/23 08:18:37;;;;;;;680.75;228.25;;;;;;;;;;5068646;28;20033;-63
2023/09/23 08:21:02;;;;;;;681.65;222.55;;;;;;;;;;5066259;28;20020;-59
2023/09/23 08:23:28;;;;;;;683.70;233.98;;;;;;;;;;5065488;28;20035;-59
2023/09/23 08:25:54;;;;;;;684.75;239.43;;;;;;;;;;5067343;28;20017;-63
2023/09/23 08:28:19;;;;;;;687.63;235.60;;;;;;;;;;5065679;28;20035;-61
2023/09/23 08:30:46;;;;;;;685.00;238.15;;;;;;;;;;5066122;28;20024;-63
2023/09/23 08:33:12;;;;;;;686.47;234.73;;;;;;;;;;5065991;28;20032;-59
2023/09/23 08:35:37;;;;;;;675.35;222.57;;;;;;;;;;5061865;28;20777;-62
2023/09/23 08:38:03;;;;;;;689.83;241.40;;;;;;;;;;5061742;28;20112;-59
2023/09/23 08:40:33;;;;;;;684.40;237.43;;;;;;;;;;5067497;28;20069;-60
2023/09/23 08:43:00;;;;;;;685.05;230.85;;;;;;;;;;5065416;28;20029;-59
2023/09/23 08:45:27;;;;;;;676.78;229.43;;;;;;;;;;5067194;28;20072;-61
2023/09/23 08:47:53;;;;;;;688.42;243.13;;;;;;;;;;5026852;28;20131;-64
2023/09/23 08:50:20;;;;;;;680.33;239.88;;;;;;;;;;5066167;28;20140;-64
2023/09/23 08:52:45;;;;;;;698.25;261.33;;;;;;;;;;5063220;28;20050;-59
2023/09/23 08:55:11;;;;;;;698.55;256.98;;;;;;;;;;5067592;28;20149;-57
2023/09/23 08:57:37;;;;;;;691.30;245.40;;;;;;;;;;5062004;28;20064;-56
2023/09/23 09:00:07;;;;;;;685.83;245.65;;;;;;;;;;5048260;28;20455;-57
2023/09/23 09:02:33;;;;;;;685.53;240.52;;;;;;;;;;5050112;28;20020;-58
2023/09/23 09:04:58;;;;;;;684.55;232.48;;;;;;;;;;5066732;28;20082;-60
2023/09/23 09:07:24;;;;;;;678.95;230.82;;;;;;;;;;5064808;28;20051;-60
2023/09/23 09:09:50;;;;;;;684.70;237.05;;;;;;;;;;5066735;28;20029;-57
2023/09/23 09:12:15;;;;;;;678.25;229.68;;;;;;;;;;5064627;28;20345;-59
2023/09/23 09:14:41;;;;;;;681.65;227.77;;;;;;;;;;5066427;28;20495;-56
2023/09/23 09:17:09;;;;;;;681.63;230.70;;;;;;;;;;5062938;28;20375;-61
2023/09/23 09:19:36;;;;;;;672.20;221.93;;;;;;;;;;5065178;28;20051;-60
2023/09/23 09:22:01;;;;;;;669.83;209.38;;;;;;;;;;5064871;28;20017;-63
2023/09/23 09:24:27;;;;;;;676.60;226.32;;;;;;;;;;5066628;28;20073;-57
2023/09/23 09:26:53;;;;;;;676.15;220.90;;;;;;;;;;5064492;28;20023;-63
2023/09/23 09:29:18;;;;;;;685.58;239.23;;;;;;;;;;5066447;28;20185;-62
2023/09/23 09:31:44;;;;;;;682.35;248.00;;;;;;;;;;5063229;28;20643;-57
2023/09/23 09:34:11;;;;;;;683.47;242.27;;;;;;;;;;5064656;28;20412;-63
2023/09/23 09:36:40;;;;;;;681.60;246.55;;;;;;;;;;5053843;28;20024;-63
2023/09/23 09:39:09;;;;;;;686.33;242.00;;;;;;;;;;5054930;28;20081;-63
2023/09/23 09:41:37;;;;;;;681.13;245.90;;;;;;;;;;5047393;28;20036;-61
2023/09/23 09:44:04;;;;;;;691.42;249.65;;;;;;;;;;5045820;28;20111;-63
2023/09/23 09:46:30;;;;;;;678.55;238.32;;;;;;;;;;5047303;28;20513;-62
2023/09/23 09:48:57;;;;;;;688.42;250.30;;;;;;;;;;5065512;28;20078;-63
2023/09/23 09:51:22;;;;;;;686.58;268.10;;;;;;;;;;5062511;28;20149;-60
2023/09/23 09:53:48;;;;;;;684.90;258.52;;;;;;;;;;5065485;28;20028;-62
2023/09/23 09:56:14;;;;;;;685.35;260.25;;;;;;;;;;5064333;28;20047;-62
2023/09/23 09:58:41;;;;;;;677.08;241.02;;;;;;;;;;5065150;28;20489;-60
2023/09/23 10:01:11;;;;;;;681.03;250.85;;;;;;;;;;5063817;28;20043;-57
2023/09/23 10:03:37;;;;;;;681.05;250.98;;;;;;;;;;5059530;28;20062;-56
2023/09/23 10:06:03;;;;;;;690.25;273.13;;;;;;;;;;5065460;28;20024;-57
2023/09/23 10:08:35;;;;;;;690.05;263.77;;;;;;;;;;5063524;28;20032;-62
2023/09/23 10:11:04;;;;;;;694.88;278.35;;;;;;;;;;5065204;28;20020;-61
2023/09/23 10:13:31;;;;;;;702.72;284.92;;;;;;;;;;5062854;28;20063;-62
2023/09/23 10:16:06;;;;;;;700.42;283.33;;;;;;;;;;5048788;28;20483;-58
2023/09/23 10:18:37;;;;;;;699.90;280.58;;;;;;;;;;5052231;28;20041;-57
2023/09/23 10:21:02;;;;;;;692.90;270.85;;;;;;;;;;5045408;28;20119;-64
2023/09/23 10:23:32;;;;;;;698.92;284.38;;;;;;;;;;5063248;28;20470;-55
2023/09/23 10:25:58;;;;;;;695.58;285.02;;;;;;;;;;5033257;28;20520;-58
2023/09/23 10:28:24;;;;;;;699.35;282.05;;;;;;;;;;5040049;28;20037;-61
2023/09/23 10:30:59;;;;;;;695.88;287.52;;;;;;;;;;5042175;28;20079;-57
2023/09/23 10:33:26;;;;;;;693.90;281.08;;;;;;;;;;5040833;28;20029;-60
2023/09/23 10:35:52;;;;;;;699.50;299.00;;;;;;;;;;5041647;28;20033;-60
2023/09/23 10:38:23;;;;;;;701.35;305.08;;;;;;;;;;5040465;28;20040;-58
2023/09/23 10:40:52;;;;;;;694.95;298.85;;;;;;;;;;5026258;28;20128;-55
2023/09/23 10:43:18;;;;;;;699.65;304.55;;;;;;;;;;5038781;28;20029;-63
2023/09/23 10:45:44;;;;;;;709.58;323.13;;;;;;;;;;5042042;28;20052;-62
2023/09/23 10:48:09;;;;;;;706.58;313.55;;;;;;;;;;5039515;28;20025;-58
2023/09/23 10:50:34;;;;;;;701.00;309.40;;;;;;;;;;5041813;28;20433;-62
2023/09/23 10:53:00;;;;;;;687.25;275.85;;;;;;;;;;5040516;28;20039;-60
2023/09/23 10:55:25;;;;;;;692.63;291.58;;;;;;;;;;5040428;28;20029;-63
2023/09/23 10:57:51;;;;;;;683.08;271.67;;;;;;;;;;5056007;28;20051;-56
2023/09/23 11:00:21;;;;;;;688.83;284.20;;;;;;;;;;5064320;28;20463;-59
2023/09/23 11:02:52;;;;;;;692.85;292.33;;;;;;;;;;5059809;28;20050;-63
2023/09/23 11:05:20;;;;;;;685.03;267.52;;;;;;;;;;5044706;28;20109;-64
2023/09/23 11:07:45;;;;;;;677.72;263.60;;;;;;;;;;5057480;28;20033;-65
2023/09/23 11:10:11;;;;;;;679.22;261.45;;;;;;;;;;5058860;28;20067;-64
2023/09/23 11:12:36;;;;;;;683.92;281.75;;;;;;;;;;5054829;28;20028;-62
2023/09/23 11:15:02;;;;;;;688.90;295.30;;;;;;;;;;5064244;28;20074;-57
2023/09/23 11:17:30;;;;;;;691.90;309.95;;;;;;;;;;5063032;28;20264;-63
2023/09/23 11:19:57;;;;;;;701.10;334.17;;;;;;;;;;5058744;28;20021;-60
2023/09/23 11:22:26;;;;;;;698.17;336.00;;;;;;;;;;5051216;28;20031;-62
2023/09/23 11:24:51;;;;;;;712.78;356.77;;;;;;;;;;5062320;28;20090;-63
2023/09/23 11:27:17;;;;;;;699.97;345.30;;;;;;;;;;5062365;28;20020;-62
2023/09/23 11:29:42;;;;;;;678.80;292.83;;;;;;;;;;5064165;28;20025;-61
2023/09/23 11:32:07;;;;;;;685.65;312.02;;;;;;;;;;5062338;28;20024;-63
2023/09/23 11:34:33;;;;;;;700.85;346.40;;;;;;;;;;5064176;28;20328;-60
2023/09/23 11:36:59;;;;;;;687.95;315.27;;;;;;;;;;5062486;28;20386;-60
2023/09/23 11:39:24;;;;;;;699.13;349.42;;;;;;;;;;5064817;28;20020;-58
2023/09/23 11:41:57;;;;;;;697.53;340.20;;;;;;;;;;5066276;28;20031;-61
2023/09/23 11:44:22;;;;;;;692.95;327.65;;;;;;;;;;5067629;28;20041;-61
2023/09/23 11:46:47;;;;;;;709.65;364.40;;;;;;;;;;5065315;28;20024;-62
2023/09/23 11:49:13;;;;;;;709.42;358.00;;;;;;;;;;5054903;28;20425;-54
2023/09/23 11:51:38;;;;;;;708.55;350.70;;;;;;;;;;5051316;28;20456;-59
2023/09/23 11:54:03;;;;;;;709.55;354.48;;;;;;;;;;5062190;28;20028;-61
2023/09/23 11:56:28;;;;;;;703.28;340.63;;;;;;;;;;5060216;28;20060;-61
2023/09/23 11:58:54;;;;;;;701.88;335.38;;;;;;;;;;5062061;28;20119;-60
2023/09/23 12:01:20;;;;;;;700.65;337.17;;;;;;;;;;5058272;28;20076;-59
2023/09/23 12:03:45;;;;;;;693.03;318.80;;;;;;;;;;5046182;28;20087;-61
2023/09/23 12:06:11;;;;;;;698.83;325.33;;;;;;;;;;5047023;28;20021;-57
2023/09/23 12:08:37;;;;;;;699.13;324.35;;;;;;;;;;5067588;28;20043;-57
2023/09/23 12:11:04;;;;;;;695.50;308.55;;;;;;;;;;5049678;28;20047;-59
2023/09/23 12:13:29;;;;;;;692.63;298.55;;;;;;;;;;5065706;28;20039;-61
2023/09/23 12:15:54;;;;;;;683.80;278.95;;;;;;;;;;5058186;28;20029;-63
2023/09/23 12:18:20;;;;;;;679.75;268.10;;;;;;;;;;5064269;28;20028;-58
2023/09/23 12:20:45;;;;;;;679.42;271.15;;;;;;;;;;5067327;28;20497;-61
2023/09/23 12:23:13;;;;;;;670.90;254.98;;;;;;;;;;5065608;28;20017;-64
2023/09/23 12:25:38;;;;;;;678.22;264.92;;;;;;;;;;5064906;28;20564;-58
2023/09/23 12:28:04;;;;;;;675.38;255.82;;;;;;;;;;5065120;28;20107;-62
2023/09/23 12:30:29;;;;;;;664.38;234.13;;;;;;;;;;5066969;28;20047;-56
2023/09/23 12:32:54;;;;;;;669.45;236.95;;;;;;;;;;5064450;28;20064;-63
2023/09/23 12:35:20;;;;;;;670.17;230.82;;;;;;;;;;5066547;28;20108;-61
2023/09/23 12:37:45;;;;;;;668.42;240.43;;;;;;;;;;5046239;28;20040;-58
2023/09/23 12:40:10;;;;;;;674.60;244.55;;;;;;;;;;5052516;28;20044;-62
2023/09/23 12:42:35;;;;;;;669.33;236.40;;;;;;;;;;5053372;28;20024;-63
2023/09/23 12:45:01;;;;;;;664.72;228.40;;;;;;;;;;5066053;28;20549;-61
2023/09/23 12:47:26;;;;;;;661.97;223.40;;;;;;;;;;5065178;28;20032;-62
2023/09/23 12:49:51;;;;;;;659.28;218.18;;;;;;;;;;5066925;28;20433;-63
2023/09/23 12:52:17;;;;;;;658.20;202.52;;;;;;;;;;5063912;28;20035;-62
2023/09/23 12:54:42;;;;;;;656.33;211.48;;;;;;;;;;5066704;28;20571;-55
2023/09/23 12:57:08;;;;;;;699.53;237.15;;;;;;;;;;5062144;28;20025;-62
2023/09/23 12:59:33;;;;;;;725.83;237.05;;;;;;;;;;5055148;28;20021;-61
2023/09/23 13:01:58;;;;;;;694.15;218.27;;;;;;;;;;5051611;28;20009;-62
2023/09/23 13:04:24;;;;;;;662.33;208.18;;;;;;;;;;5050198;28;20136;-59
2023/09/23 13:06:49;;;;;;;633.42;182.65;;;;;;;;;;5050672;28;20020;-60
2023/09/23 13:09:14;;;;;;;642.92;184.15;;;;;;;;;;5065890;28;20058;-63
2023/09/23 13:11:42;;;;;;;633.78;181.02;;;;;;;;;;5064158;28;20397;-57
2023/09/23 13:14:07;;;;;;;643.22;192.75;;;;;;;;;;5066514;28;20013;-61
2023/09/23 13:16:33;;;;;;;628.13;174.98;;;;;;;;;;5059348;28;20474;-58
2023/09/23 13:18:58;;;;;;;620.40;171.27;;;;;;;;;;5065475;28;20036;-57
2023/09/23 13:21:24;;;;;;;618.78;173.07;;;;;;;;;;5047349;28;20072;-63
2023/09/23 13:23:49;;;;;;;623.53;172.20;;;;;;;;;;5058217;28;20378;-61
2023/09/23 13:26:15;;;;;;;629.08;180.98;;;;;;;;;;5045734;28;20060;-59
2023/09/23 13:28:40;;;;;;;632.55;177.77;;;;;;;;;;5066212;28;20025;-61
2023/09/23 13:31:06;;;;;;;636.55;185.15;;;;;;;;;;5064342;28;20020;-59
2023/09/23 13:33:32;;;;;;;621.30;174.95;;;;;;;;;;5065049;28;20287;-61
2023/09/23 13:35:57;;;;;;;618.05;176.57;;;;;;;;;;5056670;28;20033;-57
2023/09/23 13:38:23;;;;;;;631.67;198.20;;;;;;;;;;5061021;28;20036;-63
2023/09/23 13:40:48;;;;;;;647.92;195.63;;;;;;;;;;5065383;28;20093;-61
2023/09/23 13:43:14;;;;;;;648.63;194.88;;;;;;;;;;5064438;28;20021;-57
2023/09/23 13:45:40;;;;;;;641.63;184.38;;;;;;;;;;5061684;28;20282;-63
2023/09/23 13:48:07;;;;;;;630.25;178.80;;;;;;;;;;5046019;28;20037;-62